Jump River, Wisconsin
Current Conditions -  °F | °C
As of 2:15 AM on Monday 26 Jan 2015 (Local Time) from KRCX Reporting Station
Overcast Overcast  
Wind Chill:   Ceiling: 9000
Heat Index: 17°   Visibility: 10mi
Dew Point: 11°   Wind: 7mph
Humidity: 76%   Direction: 170°S
Pressure: 29.92"   Gusts: NA
Location:  45.35°N, 90.8°W
Report Text: KRCX 260815Z AUTO 17006KT 10SM BKN090 OVC120 M08/M12 A2992 RMK AO2 T10821118
Loading
Personal Weather Stations






























Interactive Weather Map New forecast layout! Learn more

10-Day Weather Forecast

Advertisements
Track Severe Weather on mobile